Time;durP1;ratioP1;P1;durP2;ratioP2;P2;SDS_P1;SDS_P2;PMS_P1;PMS_P2;Temp;Humidity;BMP_temperature;BMP_pressure;BME280_temperature;BME280_humidity;BME280_pressure;Samples;Min_cycle;Max_cycle;Signal;HPM_P1;HPM_P2
2021/06/02 05:05:00;;;;;;;3.95;3.33;;;;;;;13.63;54.94;100428.82;1853236;77;22709;-69
2021/06/02 05:08:07;;;;;;;5.70;3.57;;;;;;;13.65;54.82;100426.95;1826851;77;20926;-72
2021/06/02 05:10:49;;;;;;;;;;;;;;;13.72;54.67;100437.88;1778933;78;21505;-70
2021/06/02 05:13:59;;;;;;;4.55;2.87;;;;;;;13.78;54.74;100434.88;1809869;77;20099;-72
2021/06/02 05:17:09;;;;;;;3.75;3.05;;;;;;;13.83;54.21;100430.20;1830133;78;20890;-69
2021/06/02 05:23:46;;;;;;;9.75;3.20;;;;;;;13.93;54.16;100429.16;1775295;79;20898;-70
2021/06/02 05:26:43;;;;;;;6.22;3.25;;;;;;;14.03;54.08;100427.13;1797659;79;21182;-70
2021/06/02 05:29:36;;;;;;;5.22;2.98;;;;;;;14.17;54.08;100428.03;1824750;77;20926;-70
2021/06/02 05:32:27;;;;;;;6.17;3.40;;;;;;;14.27;53.16;100435.20;1796094;79;20969;-69
2021/06/02 05:35:42;;;;;;;7.85;3.17;;;;;;;14.33;53.77;100422.18;1772340;79;20974;-69
2021/06/02 05:38:35;;;;;;;4.05;2.67;;;;;;;14.41;53.58;100421.21;1755126;81;20900;-70
2021/06/02 05:41:43;;;;;;;2.42;2.22;;;;;;;14.45;52.92;100416.14;1725963;83;21216;-71
2021/06/02 05:45:02;;;;;;;6.35;2.75;;;;;;;14.42;53.10;100415.50;1799480;78;21132;-70
2021/06/02 05:47:41;;;;;;;4.97;3.15;;;;;;;14.39;53.30;100410.46;1797737;79;20914;-70
2021/06/02 05:50:42;;;;;;;4.97;2.95;;;;;;;14.43;53.95;100405.39;1739774;79;21424;-70
2021/06/02 05:53:35;;;;;;;8.55;2.95;;;;;;;14.49;53.49;100408.92;1802518;78;20851;-68
2021/06/02 05:56:40;;;;;;;6.08;2.67;;;;;;;14.55;53.09;100409.83;1812009;78;21029;-70
2021/06/02 06:00:03;;;;;;;3.58;3.20;;;;;;;14.59;53.33;100395.58;1794677;79;20934;-72
2021/06/02 06:03:09;;;;;;;3.95;2.67;;;;;;;14.70;52.79;100406.19;1777301;80;21002;-73
2021/06/02 06:06:05;;;;;;;3.42;2.90;;;;;;;14.84;52.68;100404.77;1788618;79;20908;-69
2021/06/02 06:08:55;;;;;;;3.17;2.65;;;;;;;14.94;52.13;100418.94;1796546;79;20959;-69
2021/06/02 06:12:05;;;;;;;5.87;2.30;;;;;;;15.04;52.36;100406.04;1797665;79;21505;-71
2021/06/02 06:15:09;;;;;;;3.00;2.33;;;;;;;15.19;50.90;100406.30;1802991;79;20958;-68
2021/06/02 06:17:49;;;;;;;10.85;3.10;;;;;;;15.31;50.51;100398.03;1785308;78;21528;-68
2021/06/02 06:20:53;;;;;;;4.70;2.77;;;;;;;15.53;50.06;100407.88;1791361;79;21459;-69
2021/06/02 06:23:47;;;;;;;2.50;2.17;;;;;;;15.72;49.71;100408.26;1795834;79;20931;-70
2021/06/02 06:26:36;;;;;;;3.37;2.25;;;;;;;15.92;49.32;100416.03;1774474;78;21859;-69
2021/06/02 06:29:20;;;;;;;8.60;2.70;;;;;;;16.04;48.79;100412.49;1822606;78;20940;-70
2021/06/02 06:31:50;;;;;;;5.03;2.62;;;;;;;16.13;48.03;100429.38;1821874;78;20935;-70
2021/06/02 06:34:24;;;;;;;6.28;2.85;;;;;;;16.13;47.99;100409.67;1816210;78;20938;-70
2021/06/02 06:36:54;;;;;;;6.00;2.75;;;;;;;16.14;48.08;100417.45;1803865;79;21489;-70
2021/06/02 06:39:53;;;;;;;4.42;2.22;;;;;;;16.10;48.25;100413.36;1775992;79;21755;-69
2021/06/02 06:42:27;;;;;;;3.50;2.22;;;;;;;16.13;48.10;100414.93;1755594;80;21287;-69
2021/06/02 06:45:00;;;;;;;5.15;2.55;;;;;;;16.16;47.92;100410.77;1789252;78;20931;-70
2021/06/02 06:47:27;;;;;;;8.30;2.65;;;;;;;16.26;47.52;100448.56;1792977;79;20997;-70
2021/06/02 06:49:56;;;;;;;3.15;2.08;;;;;;;16.32;46.65;100423.99;1807211;79;20915;-70
2021/06/02 06:52:24;;;;;;;4.03;2.58;;;;;;;16.34;47.03;100423.41;1803875;79;21135;-73
2021/06/02 06:54:54;;;;;;;4.35;2.20;;;;;;;16.45;47.50;100433.58;1806408;79;21558;-68
2021/06/02 06:57:21;;;;;;;3.02;2.33;;;;;;;16.63;46.93;100419.07;1783372;78;21006;-68
2021/06/02 06:59:50;;;;;;;4.85;2.45;;;;;;;16.84;45.59;100431.09;1796733;79;21019;-71
2021/06/02 07:02:18;;;;;;;4.17;2.72;;;;;;;16.93;45.27;100485.64;1803295;79;21428;-70
2021/06/02 07:04:46;;;;;;;5.08;2.40;;;;;;;16.97;45.27;100422.16;1818817;78;21101;-68
2021/06/02 07:07:14;;;;;;;23.30;3.37;;;;;;;17.10;45.83;100418.11;1821705;78;20917;-68
2021/06/02 07:09:41;;;;;;;5.37;2.20;;;;;;;17.21;44.81;100408.89;1820643;78;20879;-70
2021/06/02 07:12:10;;;;;;;9.50;2.02;;;;;;;17.29;44.09;100417.03;1821499;78;20938;-71
2021/06/02 07:14:37;;;;;;;4.15;2.55;;;;;;;17.31;44.09;100409.86;1821953;78;20926;-66
2021/06/02 07:17:05;;;;;;;6.45;2.55;;;;;;;17.34;43.90;100412.73;1821729;78;21037;-72
2021/06/02 07:19:35;;;;;;;8.25;2.45;;;;;;;17.36;44.33;100408.66;1821629;78;21556;-71
2021/06/02 07:22:06;;;;;;;7.75;2.85;;;;;;;17.40;43.86;100408.30;1791284;78;20898;-70
2021/06/02 07:24:34;;;;;;;4.45;2.33;;;;;;;17.43;44.03;100407.23;1821953;78;21040;-70
2021/06/02 07:27:04;;;;;;;9.13;2.40;;;;;;;17.48;43.19;100420.87;1821575;78;20986;-69
2021/06/02 07:29:31;;;;;;;11.48;2.45;;;;;;;17.51;43.26;100404.83;1821550;78;21459;-71
2021/06/02 07:32:00;;;;;;;11.65;2.50;;;;;;;17.54;42.67;100406.75;1817758;78;20884;-71
2021/06/02 07:34:28;;;;;;;5.37;2.17;;;;;;;17.58;43.20;100442.89;1816730;78;20908;-70
2021/06/02 07:36:56;;;;;;;3.30;1.70;;;;;;;17.56;42.68;100407.47;1816659;79;21289;-69
2021/06/02 07:39:24;;;;;;;2.37;1.98;;;;;;;17.57;42.94;100401.23;1809309;78;20950;-70
2021/06/02 07:41:52;;;;;;;3.98;1.80;;;;;;;17.63;42.67;100405.99;1789386;80;21579;-69
2021/06/02 07:44:20;;;;;;;4.78;2.35;;;;;;;17.67;42.58;100405.30;1792886;78;20937;-68
2021/06/02 07:46:48;;;;;;;6.90;2.40;;;;;;;17.69;42.11;100411.28;1809870;78;20895;-68
2021/06/02 07:49:15;;;;;;;11.55;2.50;;;;;;;17.61;41.70;100415.81;1809264;78;20974;-69
2021/06/02 07:51:42;;;;;;;7.60;2.47;;;;;;;17.54;41.82;100404.59;1820377;78;20970;-70
2021/06/02 07:54:15;;;;;;;5.37;2.10;;;;;;;17.46;42.37;100404.36;1816437;79;21482;-73
2021/06/02 07:56:56;;;;;;;11.80;2.60;;;;;;;17.42;42.87;100405.55;1782923;78;21536;-72
2021/06/02 07:59:34;;;;;;;3.80;2.37;;;;;;;17.43;42.51;100412.49;1817975;78;21090;-67
2021/06/02 08:02:03;;;;;;;2.40;1.98;;;;;;;17.45;42.42;100396.09;1818798;78;20950;-69
2021/06/02 08:04:31;;;;;;;13.48;2.75;;;;;;;17.51;43.29;100393.82;1813236;78;21493;-68
2021/06/02 08:07:00;;;;;;;5.72;2.00;;;;;;;17.63;42.16;100391.98;1817131;78;21092;-70
2021/06/02 08:09:28;;;;;;;16.62;3.05;;;;;;;17.75;41.18;100404.70;1817568;77;20981;-70
2021/06/02 08:11:56;;;;;;;5.67;1.90;;;;;;;17.73;41.45;100402.66;1817301;79;20962;-68
2021/06/02 08:14:23;;;;;;;2.90;1.80;;;;;;;17.70;41.27;100393.20;1817794;79;21500;-70
2021/06/02 08:16:52;;;;;;;5.70;2.00;;;;;;;17.67;41.68;100382.91;1818009;78;20945;-68
2021/06/02 08:19:19;;;;;;;21.73;2.77;;;;;;;17.68;41.83;100388.54;1818583;79;21940;-71
2021/06/02 08:21:51;;;;;;;11.00;2.02;;;;;;;17.75;41.79;100400.27;1794407;79;21005;-71
2021/06/02 08:24:22;;;;;;;9.15;2.22;;;;;;;17.83;41.13;100401.81;1818196;79;20868;-71
2021/06/02 08:26:50;;;;;;;2.67;1.82;;;;;;;17.90;40.88;100403.47;1816857;79;20966;-71
2021/06/02 08:29:17;;;;;;;5.12;2.22;;;;;;;17.86;40.97;100396.30;1817020;79;20950;-70
2021/06/02 08:31:45;;;;;;;7.47;1.90;;;;;;;17.82;41.43;100408.52;1817796;79;21568;-69
2021/06/02 08:34:12;;;;;;;2.25;2.00;;;;;;;17.76;41.53;100411.16;1818077;79;21025;-69
2021/06/02 08:36:39;;;;;;;5.37;2.20;;;;;;;17.80;42.19;100408.64;1833671;78;20919;-72
2021/06/02 08:39:08;;;;;;;3.60;1.77;;;;;;;17.91;42.27;100413.05;1837995;78;20927;-73
2021/06/02 08:41:39;;;;;;;5.50;2.70;;;;;;;18.01;41.55;100415.28;1838166;78;20927;-69
2021/06/02 08:44:08;;;;;;;5.42;2.40;;;;;;;18.00;41.32;100414.44;1831158;78;21596;-68
2021/06/02 08:46:36;;;;;;;6.30;2.20;;;;;;;17.96;41.19;100401.19;1802970;79;20859;-68
2021/06/02 08:49:05;;;;;;;5.20;2.08;;;;;;;17.93;40.91;100404.06;1818503;79;20958;-69
2021/06/02 08:51:34;;;;;;;6.12;1.90;;;;;;;17.89;41.41;100402.64;1828710;78;20951;-69
2021/06/02 08:54:03;;;;;;;2.08;1.65;;;;;;;17.89;41.18;100407.91;1822434;78;20969;-71
2021/06/02 08:56:30;;;;;;;3.17;1.95;;;;;;;17.89;40.63;100413.17;1819887;78;21220;-70
2021/06/02 08:58:57;;;;;;;7.35;2.00;;;;;;;17.92;41.00;100426.58;1823433;77;21525;-70
2021/06/02 09:01:25;;;;;;;6.70;1.90;;;;;;;18.00;40.58;100409.17;1819976;77;21467;-70
2021/06/02 09:03:53;;;;;;;3.10;1.70;;;;;;;18.11;41.01;100406.15;1811905;77;21071;-71
2021/06/02 09:06:20;;;;;;;3.60;3.17;;;;;;;18.23;40.96;100401.20;1805314;78;21548;-72
2021/06/02 09:08:49;;;;;;;2.30;2.10;;;;;;;18.40;40.80;100399.79;1785813;78;21544;-71
2021/06/02 09:11:18;;;;;;;4.67;1.72;;;;;;;18.59;40.83;100398.62;1789181;79;20923;-71
2021/06/02 09:13:46;;;;;;;4.50;2.00;;;;;;;18.77;40.04;100381.30;1791032;80;21449;-70
2021/06/02 09:16:30;;;;;;;6.33;2.02;;;;;;;18.86;39.74;100391.04;1791096;80;21436;-69
2021/06/02 09:19:09;;;;;;;3.58;1.67;;;;;;;18.91;39.65;100387.53;1770918;79;20930;-69
2021/06/02 09:21:38;;;;;;;4.00;2.08;;;;;;;18.98;39.56;100391.80;1799996;78;21176;-70
2021/06/02 09:24:07;;;;;;;5.70;2.10;;;;;;;19.07;39.25;100387.06;1797950;79;20934;-71
2021/06/02 09:26:37;;;;;;;9.25;2.08;;;;;;;19.14;39.27;100395.30;1808969;79;21446;-70
2021/06/02 09:29:11;;;;;;;1.98;1.87;;;;;;;19.15;39.43;100383.77;1809082;79;20880;-71
2021/06/02 09:31:41;;;;;;;5.22;1.82;;;;;;;19.17;38.58;100400.31;1809033;79;20879;-70
2021/06/02 09:34:24;;;;;;;3.87;1.98;;;;;;;19.16;38.26;100390.72;1804624;79;21146;-74
2021/06/02 09:37:03;;;;;;;7.15;2.08;;;;;;;19.11;38.50;100397.72;1777042;80;21009;-69
2021/06/02 09:39:28;;;;;;;3.30;2.17;;;;;;;19.04;38.65;100379.89;1776979;80;20859;-68
2021/06/02 09:41:59;;;;;;;6.17;1.72;;;;;;;19.04;39.23;100407.61;1778078;80;20877;-70
2021/06/02 09:44:29;;;;;;;4.50;1.72;;;;;;;19.03;37.90;100425.25;1792641;80;21333;-70
2021/06/02 09:47:08;;;;;;;6.85;1.57;;;;;;;18.94;38.56;100380.67;1760298;80;21140;-71
2021/06/02 09:49:51;;;;;;;3.17;1.55;;;;;;;18.94;39.59;100384.63;1778388;80;20923;-70
2021/06/02 09:52:19;;;;;;;6.37;2.42;;;;;;;19.01;38.97;100388.07;1777655;80;20879;-70
2021/06/02 09:54:46;;;;;;;2.62;1.70;;;;;;;19.03;38.84;100381.70;1777342;80;20970;-71
2021/06/02 09:57:19;;;;;;;2.20;1.70;;;;;;;19.10;39.36;100397.84;1777260;80;21010;-72
2021/06/02 09:59:58;;;;;;;3.52;1.52;;;;;;;19.11;38.27;100388.48;1797108;78;20961;-71
2021/06/02 10:02:28;;;;;;;5.10;2.08;;;;;;;19.15;38.83;100379.33;1810842;79;21008;-70
2021/06/02 10:05:06;;;;;;;9.65;2.20;;;;;;;19.26;39.13;100389.77;1783489;78;21036;-69
2021/06/02 10:07:35;;;;;;;6.83;2.12;;;;;;;19.37;38.54;100376.13;1775760;80;21556;-71
2021/06/02 10:10:11;;;;;;;2.40;1.57;;;;;;;19.45;37.38;100386.37;1774876;80;21017;-70
2021/06/02 10:12:40;;;;;;;8.48;1.82;;;;;;;19.46;38.18;100394.66;1776746;80;21162;-72
2021/06/02 10:15:10;;;;;;;4.25;1.90;;;;;;;19.46;37.80;100392.50;1747367;80;20883;-69
2021/06/02 10:17:39;;;;;;;4.62;1.65;;;;;;;19.44;37.72;100371.98;1776936;80;20891;-70
2021/06/02 10:20:12;;;;;;;3.50;1.70;;;;;;;19.42;38.13;100373.92;1776779;80;20947;-71
2021/06/02 10:22:41;;;;;;;6.40;2.22;;;;;;;19.47;38.09;100374.36;1777067;80;20884;-69
2021/06/02 10:25:12;;;;;;;5.83;2.02;;;;;;;19.48;37.59;100399.31;1777163;80;21179;-71
2021/06/02 10:27:39;;;;;;;4.00;1.90;;;;;;;19.45;38.49;100381.09;1777743;80;21036;-72
2021/06/02 10:30:08;;;;;;;3.27;2.12;;;;;;;19.48;38.82;100373.39;1776421;80;20946;-71
2021/06/02 10:32:36;;;;;;;2.77;2.12;;;;;;;19.56;38.98;100377.06;1776923;80;20958;-72
2021/06/02 10:35:05;;;;;;;6.30;1.60;;;;;;;19.60;37.93;100370.52;1776249;80;21033;-71
2021/06/02 10:37:37;;;;;;;6.15;2.45;;;;;;;19.63;38.04;100376.02;1776281;80;20950;-71
2021/06/02 10:40:07;;;;;;;2.30;1.67;;;;;;;19.66;38.28;100363.86;1746752;80;20950;-70
2021/06/02 10:42:54;;;;;;;6.05;1.55;;;;;;;19.69;38.49;100370.19;1777277;80;20923;-70
2021/06/02 10:45:26;;;;;;;5.28;1.92;;;;;;;19.72;37.48;100375.20;1781917;79;21307;-71
2021/06/02 10:47:59;;;;;;;5.25;2.00;;;;;;;19.70;37.54;100365.25;1808877;79;20987;-70
2021/06/02 10:50:41;;;;;;;7.55;1.95;;;;;;;19.65;37.78;100363.02;1776837;79;21137;-69
2021/06/02 10:53:24;;;;;;;4.08;1.80;;;;;;;19.65;38.36;100368.30;1809361;79;21434;-66
2021/06/02 10:55:58;;;;;;;4.90;2.27;;;;;;;19.69;38.80;100372.83;1809004;79;20840;-67
2021/06/02 10:58:34;;;;;;;5.12;1.62;;;;;;;19.75;37.58;100384.66;1809394;79;20938;-66
2021/06/02 11:01:12;;;;;;;4.65;1.85;;;;;;;19.74;37.58;100371.94;1804118;78;20887;-67
2021/06/02 11:03:42;;;;;;;3.30;1.90;;;;;;;19.76;37.95;100378.41;1798080;79;21543;-66
2021/06/02 11:06:21;;;;;;;4.17;1.87;;;;;;;19.82;37.88;100372.09;1805435;79;21068;-67
2021/06/02 11:08:58;;;;;;;11.57;2.25;;;;;;;19.87;37.65;100372.53;1804519;79;21018;-65
2021/06/02 11:11:40;;;;;;;4.78;2.67;;;;;;;19.92;36.39;100386.66;1804189;79;20949;-67
2021/06/02 11:14:19;;;;;;;3.12;2.33;;;;;;;19.85;36.91;100377.11;1801841;79;20986;-67
2021/06/02 11:17:02;;;;;;;4.08;2.10;;;;;;;19.81;37.65;100391.56;1801932;79;21421;-67
2021/06/02 11:19:43;;;;;;;1.92;1.50;;;;;;;19.81;37.42;100382.32;1793364;79;21397;-67
2021/06/02 11:22:23;;;;;;;7.50;2.35;;;;;;;19.88;36.97;100378.16;1809262;79;21603;-69
2021/06/02 11:24:53;;;;;;;5.12;1.90;;;;;;;19.98;37.95;100373.73;1801583;79;21011;-66
2021/06/02 11:27:25;;;;;;;11.40;2.27;;;;;;;20.13;38.18;100367.52;1751043;82;20890;-66
2021/06/02 11:30:02;;;;;;;5.40;1.75;;;;;;;20.26;37.57;100376.02;1788518;79;21138;-66
2021/06/02 11:32:32;;;;;;;3.42;2.00;;;;;;;20.34;36.78;100375.81;1796059;79;20907;-65
2021/06/02 11:35:05;;;;;;;4.83;1.72;;;;;;;20.37;37.05;100374.20;1801373;79;20994;-66
2021/06/02 11:37:35;;;;;;;8.28;2.02;;;;;;;20.35;37.14;100378.31;1803933;79;21477;-67
2021/06/02 11:40:07;;;;;;;5.97;1.92;;;;;;;20.35;36.02;100362.93;1804592;79;21488;-67
2021/06/02 11:42:42;;;;;;;6.20;1.98;;;;;;;20.39;35.88;100379.73;1804331;79;20978;-66
2021/06/02 11:45:12;;;;;;;2.02;1.75;;;;;;;20.47;36.28;100366.62;1804403;79;21426;-66
2021/06/02 11:47:48;;;;;;;4.90;2.10;;;;;;;20.55;36.49;100369.88;1804326;79;20900;-66
2021/06/02 11:50:18;;;;;;;3.15;1.80;;;;;;;20.59;36.63;100373.43;1794089;79;21556;-67
2021/06/02 11:52:58;;;;;;;2.58;1.60;;;;;;;20.57;36.51;100380.67;1750297;82;20973;-67
2021/06/02 11:55:25;;;;;;;9.20;2.17;;;;;;;20.49;35.37;100417.58;1785005;79;21074;-66
2021/06/02 11:57:52;;;;;;;7.83;1.82;;;;;;;20.49;35.37;100417.58;1779469;79;20993;-67
2021/06/02 12:00:28;;;;;;;3.25;1.40;;;;;;;20.38;35.28;100371.94;1790503;79;20935;-67
2021/06/02 12:02:58;;;;;;;4.10;1.70;;;;;;;20.24;35.38;100385.06;1792647;79;21003;-65
2021/06/02 12:05:33;;;;;;;12.18;2.50;;;;;;;20.18;36.03;100386.45;1805747;78;20927;-66
2021/06/02 12:08:05;;;;;;;4.50;1.90;;;;;;;20.18;36.62;100373.72;1792500;79;21144;-66
2021/06/02 12:10:48;;;;;;;3.55;2.08;;;;;;;20.24;36.36;100377.13;1801649;79;21017;-66
2021/06/02 12:13:23;;;;;;;5.35;1.95;;;;;;;20.23;36.40;100385.55;1809075;79;20978;-65
2021/06/02 12:16:01;;;;;;;5.50;2.27;;;;;;;20.22;35.32;100377.75;1809415;79;21393;-67
2021/06/02 12:18:41;;;;;;;5.53;2.30;;;;;;;20.22;36.20;100377.75;1809035;79;20950;-67
2021/06/02 12:21:28;;;;;;;9.68;2.47;;;;;;;20.26;36.56;100392.38;1788406;79;21406;-66
2021/06/02 12:24:06;;;;;;;2.08;1.55;;;;;;;20.25;36.10;100383.60;1725710;83;20870;-66
2021/06/02 12:26:41;;;;;;;7.83;1.70;;;;;;;20.27;36.72;100381.66;1725981;83;20966;-66
2021/06/02 12:29:16;;;;;;;4.08;2.10;;;;;;;20.38;36.04;100395.27;1717123;83;20982;-65
2021/06/02 12:31:47;;;;;;;9.93;2.10;;;;;;;20.45;35.17;100386.25;1725710;83;21055;-67
2021/06/02 12:34:21;;;;;;;8.93;1.85;;;;;;;20.37;35.32;100392.72;1717132;83;21500;-66
2021/06/02 12:36:55;;;;;;;5.03;2.10;;;;;;;20.25;35.69;100386.25;1772753;80;20881;-66
2021/06/02 12:39:28;;;;;;;1.93;1.57;;;;;;;20.22;36.71;100392.30;1789269;80;20952;-67
2021/06/02 12:41:57;;;;;;;11.57;1.92;;;;;;;20.22;36.01;100389.66;1788890;80;21012;-66
2021/06/02 12:44:30;;;;;;;6.53;1.72;;;;;;;20.24;35.31;100408.86;1788875;80;20912;-67
2021/06/02 12:47:02;;;;;;;4.08;2.27;;;;;;;20.25;35.52;100394.66;1787698;80;21972;-67
2021/06/02 12:49:31;;;;;;;2.95;1.80;;;;;;;20.27;35.37;100394.04;1788682;80;20901;-68
2021/06/02 12:52:00;;;;;;;3.52;1.85;;;;;;;20.31;35.27;100395.44;1788507;80;20932;-67
2021/06/02 12:54:31;;;;;;;11.50;2.47;;;;;;;20.37;36.10;100396.20;1787141;80;20976;-66
2021/06/02 12:56:59;;;;;;;5.03;1.60;;;;;;;20.41;35.66;100409.98;1796686;78;21009;-67
2021/06/02 12:59:32;;;;;;;6.47;2.40;;;;;;;20.35;35.43;100386.25;1792057;79;22140;-65
2021/06/02 13:02:03;;;;;;;5.30;2.37;;;;;;;20.25;35.86;100401.27;1779432;79;20951;-65
2021/06/02 13:04:34;;;;;;;5.42;1.85;;;;;;;20.16;35.41;100431.19;1791871;78;20923;-67
2021/06/02 13:07:01;;;;;;;2.15;1.70;;;;;;;20.07;35.86;100406.89;1787452;78;21700;-66
2021/06/02 13:09:28;;;;;;;8.20;2.30;;;;;;;19.99;36.22;100402.31;1792945;78;21702;-65
2021/06/02 13:11:56;;;;;;;3.05;2.00;;;;;;;20.01;36.31;100398.19;1793368;80;21436;-66
2021/06/02 13:14:40;;;;;;;3.87;1.87;;;;;;;20.11;35.84;100401.68;1793905;80;20933;-66
2021/06/02 13:17:08;;;;;;;14.43;2.35;;;;;;;20.16;35.40;100391.53;1799272;78;20941;-66
2021/06/02 13:19:41;;;;;;;4.20;1.70;;;;;;;20.14;34.96;100406.20;1808283;77;20909;-67
2021/06/02 13:22:20;;;;;;;6.87;1.70;;;;;;;20.04;34.87;100403.20;1777232;78;21036;-66
2021/06/02 13:24:49;;;;;;;9.65;1.70;;;;;;;19.86;35.53;100430.80;1807070;78;20995;-66
2021/06/02 13:27:21;;;;;;;9.33;1.72;;;;;;;19.72;35.27;100411.36;1797625;78;20933;-67
2021/06/02 13:30:09;;;;;;;1.98;1.62;;;;;;;19.63;35.64;100403.27;1804746;78;20929;-66
2021/06/02 13:32:36;;;;;;;3.42;1.65;;;;;;;19.67;35.43;100420.17;1808194;78;20920;-66
2021/06/02 13:35:17;;;;;;;2.72;1.80;;;;;;;19.77;36.03;100385.37;1821561;77;20980;-67
2021/06/02 13:37:44;;;;;;;9.40;2.20;;;;;;;19.94;36.29;100413.78;1777105;78;21066;-67
2021/06/02 13:40:18;;;;;;;5.05;2.00;;;;;;;20.06;35.66;100404.73;1798433;78;21024;-67
2021/06/02 13:43:10;;;;;;;5.67;2.58;;;;;;;20.03;35.42;100410.78;1812546;78;20878;-67
2021/06/02 13:45:43;;;;;;;9.53;2.00;;;;;;;19.90;35.45;100405.29;1812441;78;20940;-67
2021/06/02 13:48:36;;;;;;;6.70;2.05;;;;;;;19.75;35.44;100410.61;1808681;78;20984;-66
2021/06/02 13:51:13;;;;;;;3.67;1.82;;;;;;;19.64;35.54;100401.46;1803826;78;21494;-67
2021/06/02 13:54:14;;;;;;;7.42;1.90;;;;;;;19.56;35.67;100408.77;1814203;78;21368;-67
2021/06/02 13:57:14;;;;;;;5.58;2.40;;;;;;;19.54;35.72;100399.30;1691610;82;20970;-66
2021/06/02 13:59:57;;;;;;;6.90;2.10;;;;;;;19.59;36.50;100399.22;1788394;78;20960;-66
2021/06/02 14:02:25;;;;;;;3.83;2.05;;;;;;;19.72;36.48;100395.51;1790360;78;20985;-65
2021/06/02 14:04:54;;;;;;;9.15;2.40;;;;;;;19.79;36.00;100396.16;1786253;78;21089;-66
2021/06/02 14:07:23;;;;;;;3.85;2.00;;;;;;;19.82;35.81;100398.52;1784186;80;21093;-67
2021/06/02 14:09:51;;;;;;;7.30;1.90;;;;;;;19.76;36.23;100399.55;1784679;80;20950;-67
2021/06/02 14:12:19;;;;;;;2.77;2.08;;;;;;;19.68;36.37;100409.95;1784997;80;20954;-66
2021/06/02 14:14:48;;;;;;;3.95;1.80;;;;;;;19.55;36.18;100401.81;1784366;80;20974;-67
2021/06/02 14:17:17;;;;;;;4.70;2.12;;;;;;;19.47;36.34;100400.29;1785342;80;21034;-65
2021/06/02 14:19:45;;;;;;;4.25;2.20;;;;;;;19.43;36.24;100422.65;1785229;80;20970;-66
2021/06/02 14:22:15;;;;;;;4.60;1.62;;;;;;;19.41;35.92;100407.91;1785436;80;21021;-66
2021/06/02 14:24:42;;;;;;;3.62;1.65;;;;;;;19.40;35.83;100397.83;1785905;80;21484;-67
2021/06/02 14:27:09;;;;;;;11.05;2.12;;;;;;;19.42;36.44;100406.45;1801906;78;21001;-67
2021/06/02 14:29:37;;;;;;;6.28;1.92;;;;;;;19.47;36.03;100416.13;1838064;78;21217;-66
2021/06/02 14:32:07;;;;;;;2.00;1.80;;;;;;;19.49;35.60;100396.19;1837621;78;20911;-66
2021/06/02 14:34:34;;;;;;;6.67;2.35;;;;;;;19.50;35.92;100397.86;1837385;78;21023;-66
2021/06/02 14:37:01;;;;;;;3.60;1.62;;;;;;;19.53;35.56;100398.47;1837485;78;20872;-67
2021/06/02 14:39:30;;;;;;;2.37;1.50;;;;;;;19.54;35.61;100395.34;1814727;78;20840;-67
2021/06/02 14:41:57;;;;;;;12.85;2.45;;;;;;;19.56;36.06;100402.64;1837421;78;20978;-65
2021/06/02 14:44:25;;;;;;;3.77;1.90;;;;;;;19.57;35.10;100405.16;1837619;78;21324;-65
2021/06/02 14:46:52;;;;;;;2.37;1.65;;;;;;;19.51;35.39;100401.72;1837833;78;20983;-65
2021/06/02 14:49:19;;;;;;;6.83;1.82;;;;;;;19.41;36.06;100417.98;1836368;78;20975;-65
2021/06/02 14:51:47;;;;;;;4.90;1.77;;;;;;;19.27;36.05;100403.33;1836752;78;21504;-65
2021/06/02 14:54:15;;;;;;;4.85;1.80;;;;;;;19.15;36.31;100404.41;1837053;78;21081;-66
2021/06/02 14:56:43;;;;;;;4.17;1.65;;;;;;;19.08;36.53;100402.42;1837073;77;20982;-65
2021/06/02 14:59:10;;;;;;;7.37;1.70;;;;;;;19.07;36.66;100415.27;1837175;78;20974;-66
2021/06/02 15:01:37;;;;;;;9.70;2.45;;;;;;;19.14;36.68;100397.45;1837169;78;21533;-66
2021/06/02 15:04:05;;;;;;;2.35;2.00;;;;;;;19.27;36.77;100399.84;1837980;78;20950;-66
2021/06/02 15:06:32;;;;;;;6.15;1.90;;;;;;;19.41;35.86;100407.42;1843932;77;21849;-65
2021/06/02 15:08:59;;;;;;;7.17;1.70;;;;;;;19.51;36.43;100395.61;1844082;77;21387;-67
2021/06/02 15:11:27;;;;;;;3.90;1.72;;;;;;;19.59;36.63;100405.02;1832859;77;21509;-65
2021/06/02 15:13:56;;;;;;;4.00;1.70;;;;;;;19.64;36.50;100395.69;1827594;77;21456;-65
2021/06/02 15:16:23;;;;;;;5.55;2.10;;;;;;;19.64;35.93;100409.39;1833960;77;21553;-66
2021/06/02 15:18:52;;;;;;;7.40;2.05;;;;;;;19.56;35.60;100403.97;1833167;77;21154;-67
2021/06/02 15:21:20;;;;;;;3.40;1.62;;;;;;;19.45;35.94;100401.39;1831715;77;20889;-65
2021/06/02 15:23:49;;;;;;;4.45;1.90;;;;;;;19.34;35.35;100406.27;1832579;77;21005;-66
2021/06/02 15:26:17;;;;;;;2.62;1.90;;;;;;;19.25;36.06;100399.98;1789649;77;20915;-67
2021/06/02 15:28:44;;;;;;;3.98;1.67;;;;;;;19.21;36.68;100406.49;1842559;77;20944;-68
2021/06/02 15:31:13;;;;;;;3.75;1.82;;;;;;;19.17;36.16;100402.47;1832033;77;21068;-67
2021/06/02 15:33:41;;;;;;;7.05;2.05;;;;;;;19.12;36.52;100399.39;1819789;77;21075;-67
2021/06/02 15:36:08;;;;;;;6.25;2.35;;;;;;;19.06;36.81;100404.35;1832937;77;20881;-67
2021/06/02 15:38:36;;;;;;;4.90;1.98;;;;;;;18.98;36.88;100407.64;1832520;77;20975;-67
2021/06/02 15:41:05;;;;;;;4.37;2.05;;;;;;;18.93;36.97;100406.71;1818043;77;21419;-66
2021/06/02 15:43:34;;;;;;;5.10;2.20;;;;;;;18.92;36.85;100410.31;1827247;77;21487;-66
2021/06/02 15:46:01;;;;;;;2.58;2.10;;;;;;;18.92;36.91;100407.67;1817100;77;20885;-66
2021/06/02 15:48:30;;;;;;;2.98;2.10;;;;;;;18.92;37.02;100412.95;1814748;78;21355;-66
2021/06/02 15:50:58;;;;;;;3.55;1.95;;;;;;;18.94;37.41;100410.19;1815126;78;20928;-67
2021/06/02 15:53:29;;;;;;;6.85;3.05;;;;;;;18.95;37.68;100407.90;1814837;78;21549;-66
2021/06/02 15:56:01;;;;;;;4.35;2.00;;;;;;;18.89;37.30;100423.77;1815284;79;21682;-67
2021/06/02 15:58:29;;;;;;;2.02;1.90;;;;;;;18.82;37.60;100426.56;1814153;78;20960;-66
2021/06/02 16:00:56;;;;;;;4.30;2.12;;;;;;;18.73;37.54;100420.77;1814172;78;21486;-67
2021/06/02 16:03:24;;;;;;;5.22;1.72;;;;;;;18.67;37.79;100427.03;1814671;78;20913;-67
2021/06/02 16:05:52;;;;;;;3.75;1.90;;;;;;;18.60;38.02;100420.95;1814243;78;20976;-67
2021/06/02 16:08:21;;;;;;;2.37;2.08;;;;;;;18.54;38.23;100423.22;1812669;79;21031;-67
2021/06/02 16:10:49;;;;;;;4.72;2.27;;;;;;;18.47;38.53;100423.37;1814139;79;20862;-67
2021/06/02 16:13:17;;;;;;;6.67;2.58;;;;;;;18.41;38.46;100418.60;1814217;79;20967;-67
2021/06/02 16:15:46;;;;;;;4.60;2.47;;;;;;;18.33;38.55;100413.98;1814211;79;21506;-67
2021/06/02 16:18:14;;;;;;;3.35;2.33;;;;;;;18.28;38.51;100413.05;1814212;79;21403;-67
2021/06/02 16:20:42;;;;;;;3.45;2.30;;;;;;;18.26;38.88;100420.72;1814208;79;21941;-67
2021/06/02 16:23:10;;;;;;;8.08;2.05;;;;;;;18.25;39.01;100421.20;1814209;79;20916;-66
2021/06/02 16:25:39;;;;;;;5.42;2.27;;;;;;;18.28;39.27;100426.70;1814204;79;20912;-67
2021/06/02 16:28:07;;;;;;;3.75;2.00;;;;;;;18.31;39.57;100426.45;1814188;79;20980;-67
2021/06/02 16:30:34;;;;;;;2.33;2.10;;;;;;;18.33;39.52;100429.80;1814231;79;20904;-67
2021/06/02 16:33:05;;;;;;;4.50;2.25;;;;;;;18.33;38.98;100425.85;1814243;79;21598;-68
2021/06/02 16:35:32;;;;;;;5.75;2.10;;;;;;;18.32;39.20;100420.22;1814411;79;20885;-68
2021/06/02 16:38:03;;;;;;;5.35;2.35;;;;;;;18.28;39.47;100428.02;1814200;79;20972;-68
2021/06/02 16:40:30;;;;;;;3.22;1.95;;;;;;;18.22;39.37;100421.45;1814382;79;20865;-69
2021/06/02 16:42:57;;;;;;;9.08;2.60;;;;;;;18.18;39.47;100435.00;1814361;79;21543;-68
2021/06/02 16:45:25;;;;;;;20.25;2.65;;;;;;;18.12;39.77;100432.38;1814584;79;21144;-68
2021/06/02 16:47:53;;;;;;;8.73;2.52;;;;;;;18.07;40.05;100433.70;1814134;79;20971;-68
2021/06/02 16:50:22;;;;;;;2.20;1.92;;;;;;;18.00;40.16;100433.36;1814200;79;20884;-67
2021/06/02 16:52:52;;;;;;;2.62;1.75;;;;;;;17.93;40.24;100434.84;1814254;79;20853;-67
2021/06/02 16:55:20;;;;;;;3.40;2.52;;;;;;;17.87;40.52;100434.86;1791905;79;20932;-67
2021/06/02 16:57:47;;;;;;;4.55;2.22;;;;;;;17.82;40.72;100438.81;1814214;79;21037;-68
2021/06/02 17:00:20;;;;;;;5.53;2.33;;;;;;;17.77;40.70;100435.22;1814125;79;20925;-67
2021/06/02 17:02:47;;;;;;;2.35;2.00;;;;;;;17.72;40.92;100443.13;1814225;79;20897;-67